Time;durP1;ratioP1;P1;durP2;ratioP2;P2;SDS_P1;SDS_P2;PMS_P1;PMS_P2;Temp;Humidity;BMP_temperature;BMP_pressure;BME280_temperature;BME280_humidity;BME280_pressure;Samples;Min_cycle;Max_cycle;Signal;HPM_P1;HPM_P2
2022/10/03 00:01:47;;;;;;;25.08;12.95;;;;;;;8.91;100.00;102458.88;4993805;28;20022;-61
2022/10/03 00:04:21;;;;;;;23.23;12.85;;;;;;;8.85;100.00;102457.13;4992730;28;20445;-61
2022/10/03 00:06:53;;;;;;;24.58;12.65;;;;;;;8.83;100.00;102462.91;4994036;28;20038;-60
2022/10/03 00:09:40;;;;;;;23.30;13.18;;;;;;;8.83;100.00;102460.16;4993903;28;20505;-60
2022/10/03 00:12:33;;;;;;;26.38;13.18;;;;;;;8.79;100.00;102463.66;4993683;28;20116;-59
2022/10/03 00:15:20;;;;;;;25.10;12.68;;;;;;;8.79;100.00;102466.44;4991804;28;20062;-59
2022/10/03 00:18:13;;;;;;;23.10;13.00;;;;;;;8.77;100.00;102463.94;4993884;28;20022;-59
2022/10/03 00:21:13;;;;;;;22.33;11.90;;;;;;;8.65;100.00;102458.50;4993625;28;20038;-60
2022/10/03 00:23:44;;;;;;;24.90;12.80;;;;;;;8.65;100.00;102466.78;4993401;28;20030;-59
2022/10/03 00:26:54;;;;;;;23.58;12.80;;;;;;;8.62;100.00;102470.06;4993331;28;20096;-59
2022/10/03 00:29:49;;;;;;;25.70;13.48;;;;;;;8.53;100.00;102469.63;4991100;28;20466;-59
2022/10/03 00:32:29;;;;;;;25.70;12.38;;;;;;;8.52;100.00;102473.47;4991930;28;20393;-58
2022/10/03 00:35:14;;;;;;;23.60;12.75;;;;;;;8.44;100.00;102473.88;4993632;28;20084;-59
2022/10/03 00:38:03;;;;;;;24.25;13.15;;;;;;;8.41;100.00;102486.25;4993271;28;20066;-59
2022/10/03 00:41:03;;;;;;;25.77;13.13;;;;;;;8.35;100.00;102481.75;4982860;28;20132;-60
2022/10/03 00:43:50;;;;;;;26.45;12.43;;;;;;;8.30;100.00;102483.59;4991269;28;20478;-59
2022/10/03 00:46:52;;;;;;;24.52;12.50;;;;;;;8.26;100.00;102480.50;4993421;28;20030;-60
2022/10/03 00:49:48;;;;;;;23.73;12.55;;;;;;;8.21;100.00;102483.16;4992860;28;20129;-60
2022/10/03 00:52:32;;;;;;;27.30;13.07;;;;;;;8.17;100.00;102482.81;4992759;28;20423;-60
2022/10/03 00:55:41;;;;;;;27.27;13.00;;;;;;;8.15;100.00;102489.69;4992087;28;20030;-60
2022/10/03 00:58:09;;;;;;;25.23;13.20;;;;;;;8.09;100.00;102489.56;4970817;28;20178;-59
2022/10/03 01:00:35;;;;;;;22.08;12.45;;;;;;;8.07;100.00;102491.75;4989571;28;20113;-59
2022/10/03 01:03:08;;;;;;;25.20;12.98;;;;;;;8.05;100.00;102496.69;4992679;28;20165;-59
2022/10/03 01:05:44;;;;;;;23.15;12.73;;;;;;;7.91;100.00;102489.78;4992543;28;20036;-59
2022/10/03 01:08:21;;;;;;;24.67;13.35;;;;;;;7.86;100.00;102489.72;4993445;28;20067;-59
2022/10/03 01:10:52;;;;;;;22.20;12.65;;;;;;;7.92;100.00;102511.63;4992874;28;20069;-59
2022/10/03 01:13:35;;;;;;;25.75;13.10;;;;;;;7.78;100.00;102486.28;4993231;28;20082;-58
2022/10/03 01:16:19;;;;;;;23.90;12.80;;;;;;;7.85;100.00;102516.41;4992565;28;20432;-59
2022/10/03 01:19:16;;;;;;;25.23;13.30;;;;;;;7.82;100.00;102525.19;4992414;28;20419;-60
2022/10/03 01:21:55;;;;;;;25.50;13.05;;;;;;;7.76;100.00;102529.78;4992357;28;20110;-59
2022/10/03 01:25:03;;;;;;;24.10;12.95;;;;;;;7.79;100.00;102520.16;4991796;28;20374;-58
2022/10/03 01:30:58;;;;;;;23.38;12.75;;;;;;;7.92;100.00;102535.56;4993253;28;20177;-58
2022/10/03 01:33:39;;;;;;;23.60;13.95;;;;;;;7.90;100.00;102521.19;4992962;28;20120;-58
2022/10/03 01:36:11;;;;;;;24.75;13.68;;;;;;;8.01;100.00;102528.56;4993665;28;20034;-59
2022/10/03 01:38:53;;;;;;;24.85;13.50;;;;;;;7.93;100.00;102516.03;4993143;28;20045;-58
2022/10/03 01:41:45;;;;;;;23.75;14.10;;;;;;;8.04;100.00;102532.75;4992847;28;20077;-58
2022/10/03 01:44:44;;;;;;;23.83;13.10;;;;;;;8.08;100.00;102525.66;4992881;28;20027;-59
2022/10/03 01:47:31;;;;;;;26.92;14.18;;;;;;;8.04;100.00;102528.09;4993053;28;20038;-58
2022/10/03 01:50:24;;;;;;;27.27;13.90;;;;;;;8.03;100.00;102529.16;4993017;28;20037;-59
2022/10/03 01:53:02;;;;;;;27.83;14.65;;;;;;;8.02;100.00;102530.25;4990820;28;20346;-59
2022/10/03 01:55:57;;;;;;;25.80;13.93;;;;;;;8.00;100.00;102523.31;4992483;28;20030;-58
2022/10/03 01:58:39;;;;;;;23.92;12.98;;;;;;;8.03;100.00;102523.66;4992163;28;20122;-59
2022/10/03 02:01:10;;;;;;;24.48;13.02;;;;;;;8.04;100.00;102525.31;4992330;28;20084;-59
2022/10/03 02:03:45;;;;;;;24.38;13.90;;;;;;;8.04;100.00;102530.84;4992224;28;20169;-59
2022/10/03 02:06:34;;;;;;;26.42;13.98;;;;;;;8.01;100.00;102528.56;4990660;28;20100;-58
2022/10/03 02:08:59;;;;;;;23.70;13.30;;;;;;;8.02;100.00;102526.66;4992327;28;20447;-58
2022/10/03 02:11:37;;;;;;;24.13;12.88;;;;;;;8.03;100.00;102536.59;4992206;28;20106;-58
2022/10/03 02:14:17;;;;;;;25.02;13.52;;;;;;;8.04;100.00;102530.00;4992573;28;20081;-58
2022/10/03 02:16:53;;;;;;;26.88;12.95;;;;;;;7.96;100.00;102525.72;4995055;28;20022;-58
2022/10/03 02:19:29;;;;;;;25.27;13.55;;;;;;;7.96;100.00;102529.31;4995784;28;20065;-59
2022/10/03 02:21:57;;;;;;;24.67;14.35;;;;;;;7.94;100.00;102528.72;4996150;28;20034;-58
2022/10/03 02:24:38;;;;;;;27.55;13.45;;;;;;;7.95;100.00;102546.94;4995741;28;20109;-58
2022/10/03 02:27:19;;;;;;;24.10;14.20;;;;;;;7.96;100.00;102551.34;4995458;28;20034;-59
2022/10/03 02:30:23;;;;;;;24.60;12.50;;;;;;;7.97;100.00;102543.94;4995069;28;20030;-59
2022/10/03 02:33:22;;;;;;;25.38;12.98;;;;;;;7.94;100.00;102533.41;4994166;28;20133;-59
2022/10/03 02:36:27;;;;;;;25.58;14.57;;;;;;;7.91;100.00;102547.66;4993563;28;20038;-59
2022/10/03 02:39:07;;;;;;;22.27;13.13;;;;;;;7.84;100.00;102542.28;4984247;28;20121;-59
2022/10/03 02:42:04;;;;;;;24.35;13.10;;;;;;;7.83;100.00;102548.06;4995293;28;20034;-59
2022/10/03 02:44:57;;;;;;;27.63;14.55;;;;;;;7.82;100.00;102541.72;4995233;28;20069;-59
2022/10/03 02:48:00;;;;;;;23.45;13.70;;;;;;;7.71;100.00;102537.09;4995433;28;20022;-59
2022/10/03 02:50:40;;;;;;;24.65;14.25;;;;;;;7.73;100.00;102544.03;4983985;28;20038;-59
2022/10/03 02:53:39;;;;;;;22.88;14.27;;;;;;;7.68;100.00;102540.31;4995385;28;20041;-59
2022/10/03 02:56:38;;;;;;;25.90;13.30;;;;;;;7.63;100.00;102543.81;4995731;28;20034;-59
2022/10/03 02:59:29;;;;;;;24.27;13.43;;;;;;;7.58;100.00;102541.78;4995050;28;20034;-59
2022/10/03 03:02:45;;;;;;;26.40;14.70;;;;;;;7.48;100.00;102534.19;4984658;28;20112;-59
2022/10/03 03:05:29;;;;;;;23.25;14.05;;;;;;;7.42;100.00;102537.88;4994962;28;20105;-58
2022/10/03 03:08:03;;;;;;;25.08;14.50;;;;;;;7.33;100.00;102533.84;4994812;28;20023;-59
2022/10/03 03:10:44;;;;;;;24.67;14.32;;;;;;;7.29;100.00;102535.41;4994936;28;20037;-59
2022/10/03 03:13:35;;;;;;;25.58;13.55;;;;;;;7.21;100.00;102531.09;4994764;28;20148;-59
2022/10/03 03:16:39;;;;;;;23.02;13.27;;;;;;;7.14;100.00;102535.91;4994802;28;20058;-59
2022/10/03 03:19:34;;;;;;;24.38;13.70;;;;;;;7.00;100.00;102519.66;4994571;28;20022;-59
2022/10/03 03:22:40;;;;;;;21.80;13.50;;;;;;;7.09;100.00;102550.41;4984377;28;20112;-59
2022/10/03 03:25:29;;;;;;;23.88;14.07;;;;;;;7.07;100.00;102549.78;4995376;28;20089;-59
2022/10/03 03:28:10;;;;;;;20.35;13.45;;;;;;;6.95;100.00;102540.69;4994001;28;20030;-59
2022/10/03 03:31:05;;;;;;;25.23;14.15;;;;;;;6.96;100.00;102559.75;4994547;28;20105;-58
2022/10/03 03:33:51;;;;;;;22.60;13.20;;;;;;;6.91;100.00;102554.09;4995166;28;20030;-60
2022/10/03 03:36:28;;;;;;;22.42;13.45;;;;;;;6.85;100.00;102555.91;4994679;28;20105;-59
2022/10/03 03:39:04;;;;;;;21.63;13.43;;;;;;;6.79;100.00;102558.78;4993732;28;20026;-60
2022/10/03 03:41:49;;;;;;;21.23;12.68;;;;;;;6.77;100.00;102555.44;4993902;28;20033;-59
2022/10/03 03:44:39;;;;;;;22.60;13.55;;;;;;;6.71;100.00;102555.28;4994286;28;20031;-59
2022/10/03 03:47:16;;;;;;;22.73;12.85;;;;;;;6.65;100.00;102558.19;4994297;28;20175;-60
2022/10/03 03:50:06;;;;;;;24.52;13.55;;;;;;;6.64;100.00;102556.50;4994668;28;20029;-59
2022/10/03 03:52:37;;;;;;;21.38;13.20;;;;;;;6.62;100.00;102553.13;4994088;28;20034;-59
2022/10/03 03:55:05;;;;;;;22.17;13.30;;;;;;;6.54;100.00;102552.41;4992376;28;20116;-59
2022/10/03 03:57:44;;;;;;;22.65;12.90;;;;;;;6.36;100.00;102527.75;4993832;28;20034;-59
2022/10/03 04:00:16;;;;;;;22.25;13.85;;;;;;;6.48;100.00;102558.84;5008974;28;20532;-59
2022/10/03 04:02:49;;;;;;;22.80;14.30;;;;;;;6.49;100.00;102556.94;4993754;28;20022;-59
2022/10/03 04:05:30;;;;;;;;;;;;;;;6.50;100.00;102553.13;4994014;28;20041;-59
2022/10/03 04:08:01;;;;;;;23.25;13.63;;;;;;;6.46;100.00;102558.28;4994224;28;19909;-58
2022/10/03 04:10:52;;;;;;;22.25;13.23;;;;;;;6.43;100.00;102561.47;4993917;28;20030;-59
2022/10/03 04:13:36;;;;;;;21.05;13.32;;;;;;;6.39;100.00;102555.63;4993800;28;20097;-59
2022/10/03 04:19:43;;;;;;;21.48;14.07;;;;;;;6.35;100.00;102564.56;4993604;28;20038;-59
2022/10/03 04:22:22;;;;;;;22.30;14.05;;;;;;;6.31;100.00;102564.22;4993612;28;20050;-59
2022/10/03 04:25:04;;;;;;;22.70;14.25;;;;;;;6.29;100.00;102571.84;4993381;28;20037;-59
2022/10/03 04:27:40;;;;;;;23.65;13.85;;;;;;;6.28;100.00;102563.84;4993768;28;20034;-59
2022/10/03 04:30:16;;;;;;;25.13;14.20;;;;;;;6.28;100.00;102561.09;5011439;28;20109;-60
2022/10/03 04:32:59;;;;;;;23.10;15.00;;;;;;;6.26;100.00;102574.22;5012838;28;20038;-59
2022/10/03 04:35:54;;;;;;;23.35;14.70;;;;;;;6.22;100.00;102577.44;5013481;28;20029;-59
2022/10/03 04:38:39;;;;;;;24.30;13.73;;;;;;;6.23;100.00;102578.28;5013159;28;20377;-59
2022/10/03 04:41:11;;;;;;;22.73;14.82;;;;;;;6.22;100.00;102580.19;5011333;28;20037;-60
2022/10/03 04:43:48;;;;;;;23.42;14.43;;;;;;;6.18;100.00;102578.13;5012814;28;20108;-59
2022/10/03 04:46:32;;;;;;;22.20;14.27;;;;;;;6.18;100.00;102576.25;5013196;28;20034;-59
2022/10/03 04:49:11;;;;;;;25.20;13.60;;;;;;;6.18;100.00;102583.63;5012839;28;20033;-59
2022/10/03 04:51:45;;;;;;;23.35;14.75;;;;;;;6.16;100.00;102578.38;5013473;28;20033;-60
2022/10/03 04:54:22;;;;;;;24.42;14.57;;;;;;;6.17;100.00;102581.94;5012621;28;20033;-60
2022/10/03 04:56:52;;;;;;;24.42;14.63;;;;;;;6.17;100.00;102576.47;5013077;28;20049;-60
2022/10/03 04:59:24;;;;;;;22.58;14.63;;;;;;;6.16;100.00;102575.63;5012528;28;20034;-60
2022/10/03 05:02:27;;;;;;;22.23;15.10;;;;;;;6.13;100.00;102575.25;5012311;28;20508;-61
2022/10/03 05:05:11;;;;;;;23.65;14.60;;;;;;;6.09;100.00;102572.16;4952246;29;20054;-59
2022/10/03 05:08:11;;;;;;;23.30;14.80;;;;;;;6.06;100.00;102572.59;4951553;29;20078;-59
2022/10/03 05:10:59;;;;;;;21.15;14.63;;;;;;;6.04;100.00;102580.25;5001940;28;20076;-59
2022/10/03 05:13:58;;;;;;;21.90;13.75;;;;;;;5.99;100.00;102580.94;5004255;28;20232;-59
2022/10/03 05:16:27;;;;;;;23.95;14.20;;;;;;;5.98;100.00;102581.16;5012435;28;20453;-59
2022/10/03 05:19:09;;;;;;;20.67;13.90;;;;;;;5.97;100.00;102579.47;5012284;28;20088;-59
2022/10/03 05:21:40;;;;;;;22.85;14.20;;;;;;;5.89;100.00;102575.97;5012381;28;20106;-59
2022/10/03 05:24:25;;;;;;;23.02;13.98;;;;;;;5.86;100.00;102581.06;5012369;28;20436;-60
2022/10/03 05:27:05;;;;;;;21.38;14.35;;;;;;;5.89;100.00;102583.38;5012627;28;20084;-59
2022/10/03 05:30:01;;;;;;;24.10;14.95;;;;;;;5.84;100.00;102577.75;5012469;28;20092;-59
2022/10/03 05:32:40;;;;;;;24.80;15.20;;;;;;;5.89;100.00;102588.84;5012337;28;20026;-58
2022/10/03 05:35:50;;;;;;;25.02;14.95;;;;;;;5.85;100.00;102596.72;5011409;28;20036;-59
2022/10/03 05:38:15;;;;;;;24.65;15.20;;;;;;;5.85;100.00;102593.16;4991923;28;20168;-59
2022/10/03 05:41:03;;;;;;;21.83;14.55;;;;;;;5.74;100.00;102581.88;5012197;28;20030;-59
2022/10/03 05:44:00;;;;;;;24.83;14.50;;;;;;;5.83;100.00;102596.13;5011606;28;20030;-59
2022/10/03 05:50:10;;;;;;;24.80;14.63;;;;;;;5.86;100.00;102619.53;5008140;28;20227;-59
2022/10/03 05:52:40;;;;;;;24.35;14.23;;;;;;;5.87;100.00;102612.97;5016017;28;20017;-59
2022/10/03 05:55:31;;;;;;;24.70;15.20;;;;;;;5.89;100.00;102613.56;5015979;28;20065;-60
2022/10/03 05:58:24;;;;;;;21.75;14.65;;;;;;;5.91;100.00;102620.50;5015803;28;20037;-59
2022/10/03 06:01:10;;;;;;;23.70;14.30;;;;;;;5.92;100.00;102616.69;5014935;28;20497;-59
2022/10/03 06:04:04;;;;;;;25.35;14.30;;;;;;;5.96;100.00;102619.81;5015504;28;20046;-59
2022/10/03 06:06:47;;;;;;;23.00;13.70;;;;;;;6.01;100.00;102619.16;5016269;28;20103;-59
2022/10/03 06:09:33;;;;;;;23.30;13.97;;;;;;;6.06;100.00;102622.06;5016355;28;20385;-58
2022/10/03 06:12:09;;;;;;;23.98;14.07;;;;;;;6.12;100.00;102623.88;5015880;28;20126;-59
2022/10/03 06:15:01;;;;;;;24.33;14.90;;;;;;;6.12;100.00;102628.53;5015840;28;20071;-59
2022/10/03 06:17:49;;;;;;;22.75;14.23;;;;;;;6.16;100.00;102625.09;5016303;28;20029;-59
2022/10/03 06:20:52;;;;;;;22.85;14.30;;;;;;;6.20;100.00;102619.97;5016245;28;20040;-58
2022/10/03 06:23:51;;;;;;;24.38;15.00;;;;;;;6.22;100.00;102632.41;5016045;28;20040;-59
2022/10/03 06:26:36;;;;;;;25.55;14.95;;;;;;;6.28;100.00;102632.56;5016219;28;20438;-58
2022/10/03 06:29:35;;;;;;;24.58;14.90;;;;;;;6.33;100.00;102628.00;5016041;28;20040;-59
2022/10/03 06:32:28;;;;;;;24.10;15.05;;;;;;;6.37;100.00;102631.97;5015857;28;20061;-58
2022/10/03 06:35:13;;;;;;;25.50;14.85;;;;;;;6.42;100.00;102627.72;5015631;28;20053;-59
2022/10/03 06:38:03;;;;;;;25.00;14.80;;;;;;;6.47;100.00;102631.41;5015094;28;20014;-57
2022/10/03 06:40:53;;;;;;;25.45;14.65;;;;;;;6.57;100.00;102636.34;5015400;28;20052;-58
2022/10/03 06:43:55;;;;;;;25.13;15.20;;;;;;;6.56;100.00;102624.50;5015760;28;20381;-58
2022/10/03 06:46:44;;;;;;;27.33;15.68;;;;;;;6.78;100.00;102640.47;5015737;28;20022;-58
2022/10/03 06:49:41;;;;;;;27.60;16.40;;;;;;;6.84;100.00;102635.91;4997708;28;20126;-58
2022/10/03 06:52:25;;;;;;;27.45;16.50;;;;;;;6.94;100.00;102635.34;4993957;28;20038;-58
2022/10/03 06:55:19;;;;;;;27.55;16.50;;;;;;;7.02;100.00;102635.00;4994130;28;20046;-57
2022/10/03 06:58:04;;;;;;;28.27;17.30;;;;;;;7.11;100.00;102628.06;4994646;28;20026;-58
2022/10/03 07:00:52;;;;;;;24.88;16.52;;;;;;;7.16;100.00;102638.34;4997489;28;20050;-58
2022/10/03 07:03:42;;;;;;;26.35;16.40;;;;;;;7.20;100.00;102624.94;5007644;28;20160;-58
2022/10/03 07:06:47;;;;;;;24.58;16.35;;;;;;;7.38;100.00;102637.72;5004467;28;20030;-58
2022/10/03 07:09:22;;;;;;;26.40;17.73;;;;;;;7.48;100.00;102636.06;4991871;28;20078;-58
2022/10/03 07:12:25;;;;;;;26.73;15.90;;;;;;;7.58;100.00;102645.63;4997348;28;20065;-58
2022/10/03 07:15:12;;;;;;;23.75;15.85;;;;;;;7.70;100.00;102651.13;4994164;28;20062;-58
2022/10/03 07:18:05;;;;;;;27.70;16.70;;;;;;;7.83;100.00;102652.78;4994953;28;20037;-58
2022/10/03 07:20:54;;;;;;;24.23;16.30;;;;;;;7.93;100.00;102648.31;4994950;28;20033;-59
2022/10/03 07:24:02;;;;;;;25.85;16.08;;;;;;;8.02;100.00;102647.94;4994238;28;20065;-59
2022/10/03 07:26:55;;;;;;;26.02;15.55;;;;;;;8.05;100.00;102639.16;4994423;28;20053;-58
2022/10/03 07:29:33;;;;;;;25.73;16.38;;;;;;;8.24;100.00;102651.69;4994158;28;20077;-58
2022/10/03 07:32:29;;;;;;;24.98;15.65;;;;;;;8.30;100.00;102655.38;4994280;28;20026;-59
2022/10/03 07:35:23;;;;;;;25.17;16.20;;;;;;;8.39;100.00;102655.81;4993935;28;20076;-59
2022/10/03 07:41:51;;;;;;;24.00;15.77;;;;;;;8.67;100.00;102656.91;4993727;28;20056;-58
2022/10/03 07:44:56;;;;;;;25.02;15.63;;;;;;;8.76;100.00;102655.41;4993156;28;20049;-57
2022/10/03 07:47:33;;;;;;;24.23;16.40;;;;;;;8.88;100.00;102663.63;4993423;28;20117;-58
2022/10/03 07:50:09;;;;;;;24.13;15.43;;;;;;;8.94;100.00;102653.50;4993640;28;20426;-57
2022/10/03 07:52:40;;;;;;;24.38;14.63;;;;;;;9.13;100.00;102668.72;4993429;28;20028;-58
2022/10/03 07:55:24;;;;;;;22.95;14.85;;;;;;;9.26;100.00;102669.50;4992774;28;20109;-59
2022/10/03 07:57:49;;;;;;;;;;;;;;;9.36;100.00;102675.13;4993239;28;20038;-59
2022/10/03 08:00:21;;;;;;;27.33;15.10;;;;;;;9.56;100.00;102684.81;4992663;28;19968;-58
2022/10/03 08:03:23;;;;;;;23.95;14.40;;;;;;;9.66;100.00;102677.53;4992813;28;20447;-59
2022/10/03 08:05:58;;;;;;;22.05;13.27;;;;;;;9.83;100.00;102688.53;4992274;28;20034;-58
2022/10/03 08:08:52;;;;;;;25.23;13.77;;;;;;;9.90;100.00;102666.22;4992791;28;20030;-59
2022/10/03 08:11:28;;;;;;;25.27;13.77;;;;;;;10.18;100.00;102685.66;4992661;28;20255;-59
2022/10/03 08:14:06;;;;;;;23.60;12.65;;;;;;;10.31;100.00;102682.47;4991682;28;20103;-59
2022/10/03 08:16:59;;;;;;;22.48;14.27;;;;;;;10.43;100.00;102679.63;4992328;28;20034;-59
2022/10/03 08:19:27;;;;;;;24.08;13.63;;;;;;;10.54;100.00;102675.81;5027758;28;20068;-59
2022/10/03 08:21:52;;;;;;;22.65;13.05;;;;;;;10.63;100.00;102675.38;5012350;28;20095;-58
2022/10/03 08:24:55;;;;;;;24.73;13.70;;;;;;;10.71;100.00;102674.91;5012165;28;20129;-60
2022/10/03 08:27:36;;;;;;;21.95;12.98;;;;;;;10.76;100.00;102670.25;5012282;28;20352;-57
2022/10/03 08:30:21;;;;;;;21.92;12.98;;;;;;;10.77;100.00;102679.38;5011677;28;20108;-58
2022/10/03 08:32:58;;;;;;;23.02;13.05;;;;;;;10.75;100.00;102651.97;5010180;28;20124;-58
2022/10/03 08:35:45;;;;;;;22.88;12.85;;;;;;;10.99;100.00;102676.53;5011731;28;20029;-58
2022/10/03 08:38:32;;;;;;;20.10;12.57;;;;;;;11.04;100.00;102667.44;5011654;28;20030;-58
2022/10/03 08:41:06;;;;;;;22.40;12.50;;;;;;;11.16;100.00;102684.72;5011718;28;20037;-59
2022/10/03 08:43:37;;;;;;;24.40;13.23;;;;;;;11.30;100.00;102687.84;5010569;28;20034;-59
2022/10/03 08:46:37;;;;;;;22.70;13.73;;;;;;;11.44;100.00;102681.84;5010672;28;20106;-58
2022/10/03 08:49:05;;;;;;;23.45;12.23;;;;;;;11.49;100.00;102679.13;5010528;28;20034;-58
2022/10/03 08:51:51;;;;;;;20.58;12.27;;;;;;;11.58;100.00;102680.28;5010569;28;20053;-59
2022/10/03 08:54:21;;;;;;;23.20;13.38;;;;;;;11.71;100.00;102681.72;5010728;28;20095;-59
2022/10/03 08:57:11;;;;;;;21.13;12.85;;;;;;;11.83;100.00;102681.50;5010868;28;20033;-58
2022/10/03 08:59:54;;;;;;;20.88;11.93;;;;;;;11.91;100.00;102686.53;5010827;28;20065;-58
2022/10/03 09:02:56;;;;;;;22.52;12.65;;;;;;;12.07;100.00;102697.75;5010897;28;20240;-59
2022/10/03 09:05:45;;;;;;;22.98;12.70;;;;;;;12.21;99.83;102692.53;5010294;28;20084;-58
2022/10/03 09:08:48;;;;;;;21.85;11.32;;;;;;;12.35;99.28;102685.34;4980670;28;20042;-58
2022/10/03 09:11:50;;;;;;;22.48;11.20;;;;;;;12.53;97.91;102691.50;5010251;28;20045;-59
2022/10/03 09:14:54;;;;;;;23.25;11.10;;;;;;;12.73;97.60;102683.22;5008455;28;20405;-59
2022/10/03 09:17:37;;;;;;;19.38;10.50;;;;;;;12.89;95.13;102681.28;4987132;28;20062;-59
2022/10/03 09:20:09;;;;;;;20.70;10.48;;;;;;;13.06;94.30;102682.94;5010341;28;20060;-58
2022/10/03 09:23:00;;;;;;;19.35;10.48;;;;;;;13.19;94.53;102681.53;5009103;28;20026;-59
2022/10/03 09:26:05;;;;;;;21.95;10.88;;;;;;;13.27;94.05;102679.03;5010702;28;20056;-59
2022/10/03 09:29:10;;;;;;;21.02;10.00;;;;;;;13.22;93.37;102679.06;4960480;28;20037;-59
2022/10/03 09:31:53;;;;;;;;;;;;;;;13.40;96.76;102680.44;5010606;28;20026;-59
2022/10/03 09:34:35;;;;;;;19.65;9.75;;;;;;;13.60;92.23;102669.56;5010221;28;19924;-59
2022/10/03 09:37:30;;;;;;;18.35;9.45;;;;;;;13.76;90.69;102670.34;5010104;28;20496;-59
2022/10/03 09:40:13;;;;;;;20.40;9.35;;;;;;;13.79;90.01;102655.88;5010411;28;20112;-59
2022/10/03 09:42:48;;;;;;;20.57;9.60;;;;;;;14.03;89.26;102673.56;5010664;28;20045;-60
2022/10/03 09:45:30;;;;;;;17.60;9.95;;;;;;;14.08;87.04;102663.53;5010431;28;20277;-59
2022/10/03 09:48:17;;;;;;;19.73;9.80;;;;;;;14.12;87.83;102670.22;5010371;28;20109;-59
2022/10/03 09:51:08;;;;;;;17.33;9.73;;;;;;;14.15;88.50;102664.06;5008744;28;20080;-60
2022/10/03 09:54:01;;;;;;;19.27;9.27;;;;;;;14.23;87.61;102662.63;5009981;28;20033;-60
2022/10/03 09:57:17;;;;;;;19.45;9.35;;;;;;;14.32;87.84;102656.16;5010051;28;20058;-60
2022/10/03 10:00:28;;;;;;;19.63;9.40;;;;;;;14.43;86.05;102651.38;4968167;28;20081;-60
2022/10/03 10:03:37;;;;;;;19.13;9.60;;;;;;;14.47;84.99;102652.47;5001240;28;20173;-59
2022/10/03 10:06:27;;;;;;;20.52;10.30;;;;;;;14.48;85.29;102642.16;4966528;28;20106;-59
2022/10/03 10:09:36;;;;;;;19.88;9.80;;;;;;;14.61;86.18;102644.28;4968023;28;20129;-60
2022/10/03 10:12:20;;;;;;;19.25;9.10;;;;;;;14.73;83.21;102643.13;5009053;28;20089;-60
2022/10/03 10:15:04;;;;;;;17.05;8.57;;;;;;;14.79;82.00;102648.38;5010142;28;20467;-59
2022/10/03 10:17:48;;;;;;;18.45;8.73;;;;;;;14.85;82.05;102648.31;5009630;28;20057;-59
2022/10/03 10:20:43;;;;;;;19.30;9.80;;;;;;;14.87;81.56;102648.84;5009511;28;20060;-60
2022/10/03 10:23:28;;;;;;;20.92;9.05;;;;;;;14.85;80.98;102648.31;5009402;28;20029;-60
2022/10/03 10:26:03;;;;;;;16.90;8.80;;;;;;;14.77;81.56;102625.53;5009442;28;20034;-59
2022/10/03 10:28:47;;;;;;;17.98;8.82;;;;;;;14.96;80.89;102645.16;5008162;28;20359;-60
2022/10/03 10:31:18;;;;;;;19.58;8.90;;;;;;;14.96;79.27;102644.31;5009833;28;20037;-60
2022/10/03 10:34:13;;;;;;;17.23;8.65;;;;;;;14.95;81.52;102637.94;5009860;28;20120;-60
2022/10/03 10:37:17;;;;;;;19.33;9.75;;;;;;;15.02;79.91;102639.53;5010798;28;20038;-60
2022/10/03 10:39:58;;;;;;;;;;;;;;;15.11;80.82;102635.00;5013917;28;20109;-60
2022/10/03 10:43:01;;;;;;;18.55;8.90;;;;;;;15.22;77.77;102642.13;5013202;28;19952;-60
2022/10/03 10:45:48;;;;;;;19.40;8.40;;;;;;;15.34;78.58;102647.31;5012952;28;20040;-60
2022/10/03 10:48:38;;;;;;;15.80;8.30;;;;;;;15.32;75.30;102645.94;5011824;28;20037;-60
2022/10/03 10:51:34;;;;;;;17.17;8.43;;;;;;;15.33;76.53;102640.06;4996824;28;20038;-60
2022/10/03 10:54:12;;;;;;;18.00;8.38;;;;;;;15.42;74.71;102646.66;4993190;28;20034;-60
2022/10/03 10:57:21;;;;;;;16.88;8.98;;;;;;;15.49;75.90;102637.94;4992160;28;20034;-60
2022/10/03 11:00:14;;;;;;;17.52;8.70;;;;;;;15.48;76.17;102633.50;4993322;28;20030;-60
2022/10/03 11:02:45;;;;;;;17.13;8.88;;;;;;;15.61;74.79;102640.31;4993332;28;20038;-60
2022/10/03 11:05:33;;;;;;;15.52;8.73;;;;;;;15.71;74.67;102650.53;4993127;28;20375;-60
2022/10/03 11:08:20;;;;;;;16.73;9.32;;;;;;;15.83;75.88;102647.31;4993481;28;20088;-60
2022/10/03 11:11:04;;;;;;;17.10;8.80;;;;;;;15.82;72.78;102631.69;4993223;28;20092;-60
2022/10/03 11:14:17;;;;;;;18.88;8.85;;;;;;;15.90;71.52;102637.50;4993482;28;20030;-60
2022/10/03 11:17:27;;;;;;;18.58;8.95;;;;;;;16.07;72.00;102633.34;4990995;28;20065;-60
2022/10/03 11:19:58;;;;;;;19.05;9.00;;;;;;;16.24;71.96;102635.63;4993048;28;20500;-59
2022/10/03 11:22:26;;;;;;;16.13;8.60;;;;;;;16.39;69.66;102631.75;4992685;28;20180;-60
2022/10/03 11:25:23;;;;;;;16.48;8.70;;;;;;;16.41;71.92;102620.31;4992765;28;20145;-59
2022/10/03 11:28:03;;;;;;;16.98;8.13;;;;;;;16.37;67.62;102620.91;4992949;28;20038;-59
2022/10/03 11:31:01;;;;;;;15.10;8.45;;;;;;;16.44;68.21;102631.69;4991609;28;20046;-58
2022/10/03 11:33:50;;;;;;;12.65;8.30;;;;;;;16.44;66.53;102626.13;4992503;28;20133;-58
2022/10/03 11:36:55;;;;;;;17.10;9.00;;;;;;;16.59;64.51;102633.44;4992676;28;20109;-58
2022/10/03 11:39:40;;;;;;;16.80;9.00;;;;;;;16.68;64.62;102626.00;4992389;28;20065;-59
2022/10/03 11:42:44;;;;;;;16.40;9.02;;;;;;;16.76;64.99;102630.09;4992428;28;20027;-58
2022/10/03 11:45:27;;;;;;;16.02;9.15;;;;;;;16.85;64.19;102624.63;4992408;28;20478;-58
2022/10/03 11:48:02;;;;;;;17.42;8.75;;;;;;;16.89;64.07;102631.25;4991567;28;20030;-58
2022/10/03 11:50:33;;;;;;;15.85;8.50;;;;;;;16.86;63.46;102614.28;4990903;28;20042;-58
2022/10/03 11:53:21;;;;;;;17.65;8.93;;;;;;;17.10;65.42;102631.75;4992433;28;20044;-58
2022/10/03 11:55:57;;;;;;;17.77;8.95;;;;;;;17.17;64.09;102631.38;4992205;28;20089;-58
2022/10/03 11:59:00;;;;;;;18.50;9.07;;;;;;;17.20;66.29;102635.50;4992011;28;20395;-58
2022/10/03 12:02:00;;;;;;;20.05;9.10;;;;;;;17.22;66.11;102624.84;4988066;28;20070;-58
2022/10/03 12:04:48;;;;;;;19.08;9.20;;;;;;;17.11;63.51;102619.44;4992181;28;20057;-58
2022/10/03 12:10:47;;;;;;;19.25;9.27;;;;;;;17.10;62.68;102623.38;4992689;28;20181;-58
2022/10/03 12:14:04;;;;;;;16.27;8.98;;;;;;;17.15;64.39;102628.03;4991829;28;20045;-58
2022/10/03 12:16:41;;;;;;;18.40;9.07;;;;;;;17.05;64.31;102628.22;4991913;28;20045;-58
2022/10/03 12:19:14;;;;;;;17.10;9.52;;;;;;;16.89;64.68;102602.47;4991627;28;20480;-58
2022/10/03 12:21:54;;;;;;;;;;;;;;;17.05;67.57;102615.06;4991870;28;20385;-58
2022/10/03 12:24:29;;;;;;;17.77;9.60;;;;;;;16.93;64.26;102615.56;4991592;28;20321;-57
2022/10/03 12:26:58;;;;;;;17.23;9.18;;;;;;;16.80;62.85;102614.34;4990396;28;20061;-60
2022/10/03 12:29:26;;;;;;;18.30;9.65;;;;;;;16.82;64.32;102612.09;4991513;28;20075;-59
2022/10/03 12:31:58;;;;;;;16.33;9.07;;;;;;;16.84;64.60;102611.78;4991210;28;20026;-59
2022/10/03 12:34:36;;;;;;;18.90;9.20;;;;;;;16.86;64.02;102611.47;4991104;28;20317;-59
2022/10/03 12:37:19;;;;;;;16.00;8.95;;;;;;;16.99;65.82;102605.97;4991468;28;20120;-59
2022/10/03 12:40:01;;;;;;;;;;;;;;;17.11;66.34;102604.59;4990138;28;20030;-59
2022/10/03 12:42:38;;;;;;;19.75;8.90;;;;;;;17.10;65.24;102601.00;4989865;28;19968;-59
2022/10/03 12:45:19;;;;;;;17.25;9.15;;;;;;;17.10;63.67;102597.34;4991082;28;20109;-59
2022/10/03 12:47:57;;;;;;;17.48;8.73;;;;;;;17.24;64.30;102601.00;4991204;28;20030;-60
2022/10/03 12:51:02;;;;;;;18.38;8.93;;;;;;;17.40;63.24;102601.56;4991428;28;20040;-59
2022/10/03 12:53:47;;;;;;;16.98;8.35;;;;;;;17.66;62.96;102595.41;4969302;28;20186;-58
2022/10/03 12:56:25;;;;;;;17.15;8.70;;;;;;;17.65;61.90;102584.56;4989894;28;20035;-58